sensor_id;sensor_type;location;lat;lon;timestamp;temperature;humidity
13638;DHT22;6892;50.916;4.356;2022-08-11T00:01:22;20.30;1.00
13638;DHT22;6892;50.916;4.356;2022-08-11T00:03:51;20.30;1.00
13638;DHT22;6892;50.916;4.356;2022-08-11T00:06:22;20.30;1.00
13638;DHT22;6892;50.916;4.356;2022-08-11T00:08:49;20.30;1.00
13638;DHT22;6892;50.916;4.356;2022-08-11T00:11:17;20.20;1.00
13638;DHT22;6892;50.916;4.356;2022-08-11T00:13:45;20.20;1.00
13638;DHT22;6892;50.916;4.356;2022-08-11T00:16:16;20.20;1.00
13638;DHT22;6892;50.916;4.356;2022-08-11T00:18:44;20.10;1.00
13638;DHT22;6892;50.916;4.356;2022-08-11T00:21:11;20.10;1.00
13638;DHT22;6892;50.916;4.356;2022-08-11T00:23:40;20.20;1.00
13638;DHT22;6892;50.916;4.356;2022-08-11T00:26:08;20.20;1.00
13638;DHT22;6892;50.916;4.356;2022-08-11T00:28:35;20.20;1.00
13638;DHT22;6892;50.916;4.356;2022-08-11T00:31:03;20.20;1.00
13638;DHT22;6892;50.916;4.356;2022-08-11T00:33:33;20.20;1.00
13638;DHT22;6892;50.916;4.356;2022-08-11T00:36:01;20.10;1.00
13638;DHT22;6892;50.916;4.356;2022-08-11T00:38:30;20.00;1.00
13638;DHT22;6892;50.916;4.356;2022-08-11T00:40:58;20.00;1.00
13638;DHT22;6892;50.916;4.356;2022-08-11T00:43:32;19.90;1.00
13638;DHT22;6892;50.916;4.356;2022-08-11T00:46:10;19.80;1.00
13638;DHT22;6892;50.916;4.356;2022-08-11T00:48:44;19.70;1.00
13638;DHT22;6892;50.916;4.356;2022-08-11T00:51:15;19.70;1.00
13638;DHT22;6892;50.916;4.356;2022-08-11T00:53:48;19.60;1.00
13638;DHT22;6892;50.916;4.356;2022-08-11T00:59:25;19.70;1.00
13638;DHT22;6892;50.916;4.356;2022-08-11T01:02:02;19.60;1.00
13638;DHT22;6892;50.916;4.356;2022-08-11T01:04:50;19.60;1.00
13638;DHT22;6892;50.916;4.356;2022-08-11T01:07:37;19.60;1.00
13638;DHT22;6892;50.916;4.356;2022-08-11T01:10:13;19.60;1.00
13638;DHT22;6892;50.916;4.356;2022-08-11T01:12:51;19.70;1.00
13638;DHT22;6892;50.916;4.356;2022-08-11T01:15:50;19.70;1.00
13638;DHT22;6892;50.916;4.356;2022-08-11T01:29:39;19.60;1.00
13638;DHT22;6892;50.916;4.356;2022-08-11T01:32:27;19.60;1.00
13638;DHT22;6892;50.916;4.356;2022-08-11T01:35:22;19.50;1.00
13638;DHT22;6892;50.916;4.356;2022-08-11T01:40:48;19.40;1.00
13638;DHT22;6892;50.916;4.356;2022-08-11T01:43:23;19.30;1.00
13638;DHT22;6892;50.916;4.356;2022-08-11T01:46:14;19.20;1.00
13638;DHT22;6892;50.916;4.356;2022-08-11T01:48:43;19.10;1.00
13638;DHT22;6892;50.916;4.356;2022-08-11T01:51:18;19.00;1.00
13638;DHT22;6892;50.916;4.356;2022-08-11T01:53:50;18.90;1.00
13638;DHT22;6892;50.916;4.356;2022-08-11T01:56:23;18.80;1.00
13638;DHT22;6892;50.916;4.356;2022-08-11T01:58:55;18.80;1.00
13638;DHT22;6892;50.916;4.356;2022-08-11T02:01:31;18.70;1.00
13638;DHT22;6892;50.916;4.356;2022-08-11T02:04:05;18.70;1.00
13638;DHT22;6892;50.916;4.356;2022-08-11T02:06:38;18.50;1.00
13638;DHT22;6892;50.916;4.356;2022-08-11T02:09:28;18.40;1.00
13638;DHT22;6892;50.916;4.356;2022-08-11T02:12:02;18.40;1.00
13638;DHT22;6892;50.916;4.356;2022-08-11T02:14:36;18.30;1.00
13638;DHT22;6892;50.916;4.356;2022-08-11T02:17:13;18.20;1.00
13638;DHT22;6892;50.916;4.356;2022-08-11T02:19:48;18.10;1.00
13638;DHT22;6892;50.916;4.356;2022-08-11T02:22:37;18.10;1.00
13638;DHT22;6892;50.916;4.356;2022-08-11T02:25:26;18.10;1.00
13638;DHT22;6892;50.916;4.356;2022-08-11T02:27:58;18.00;1.00
13638;DHT22;6892;50.916;4.356;2022-08-11T02:30:30;18.00;1.00
13638;DHT22;6892;50.916;4.356;2022-08-11T02:33:01;17.90;1.00
13638;DHT22;6892;50.916;4.356;2022-08-11T02:35:50;17.80;1.00
13638;DHT22;6892;50.916;4.356;2022-08-11T02:38:24;17.70;1.00
13638;DHT22;6892;50.916;4.356;2022-08-11T02:40:56;17.70;1.00
13638;DHT22;6892;50.916;4.356;2022-08-11T02:43:34;17.70;1.00
13638;DHT22;6892;50.916;4.356;2022-08-11T02:46:06;17.60;1.00
13638;DHT22;6892;50.916;4.356;2022-08-11T02:48:46;17.60;1.00
13638;DHT22;6892;50.916;4.356;2022-08-11T02:51:34;17.50;1.00
13638;DHT22;6892;50.916;4.356;2022-08-11T02:54:04;17.50;1.00
13638;DHT22;6892;50.916;4.356;2022-08-11T02:56:36;17.40;1.00
13638;DHT22;6892;50.916;4.356;2022-08-11T02:59:13;17.40;1.00
13638;DHT22;6892;50.916;4.356;2022-08-11T03:02:01;17.40;1.00
13638;DHT22;6892;50.916;4.356;2022-08-11T03:04:35;17.40;1.00
13638;DHT22;6892;50.916;4.356;2022-08-11T03:07:05;17.40;1.00
13638;DHT22;6892;50.916;4.356;2022-08-11T03:09:41;17.30;1.00
13638;DHT22;6892;50.916;4.356;2022-08-11T03:12:10;17.30;1.00
13638;DHT22;6892;50.916;4.356;2022-08-11T03:14:57;17.20;1.00
13638;DHT22;6892;50.916;4.356;2022-08-11T03:17:47;17.20;1.00
13638;DHT22;6892;50.916;4.356;2022-08-11T03:20:29;17.20;1.00
13638;DHT22;6892;50.916;4.356;2022-08-11T03:22:59;17.10;1.00
13638;DHT22;6892;50.916;4.356;2022-08-11T03:25:31;17.10;1.00
13638;DHT22;6892;50.916;4.356;2022-08-11T03:28:03;17.10;1.00
13638;DHT22;6892;50.916;4.356;2022-08-11T03:30:34;17.00;1.00
13638;DHT22;6892;50.916;4.356;2022-08-11T03:33:07;17.00;1.00
13638;DHT22;6892;50.916;4.356;2022-08-11T03:36:02;17.00;1.00
13638;DHT22;6892;50.916;4.356;2022-08-11T03:38:34;16.90;1.00
13638;DHT22;6892;50.916;4.356;2022-08-11T03:41:07;16.90;1.00
13638;DHT22;6892;50.916;4.356;2022-08-11T03:44:02;16.90;1.00
13638;DHT22;6892;50.916;4.356;2022-08-11T03:46:39;16.90;1.00
13638;DHT22;6892;50.916;4.356;2022-08-11T03:49:14;16.90;1.00
13638;DHT22;6892;50.916;4.356;2022-08-11T03:51:50;16.90;1.00
13638;DHT22;6892;50.916;4.356;2022-08-11T03:54:23;16.90;1.00
13638;DHT22;6892;50.916;4.356;2022-08-11T03:57:06;16.90;1.00
13638;DHT22;6892;50.916;4.356;2022-08-11T04:08:16;16.90;1.00
13638;DHT22;6892;50.916;4.356;2022-08-11T04:10:53;16.90;1.00
13638;DHT22;6892;50.916;4.356;2022-08-11T04:16:16;16.80;1.00
13638;DHT22;6892;50.916;4.356;2022-08-11T04:21:45;16.80;1.00
13638;DHT22;6892;50.916;4.356;2022-08-11T04:24:26;16.80;1.00
13638;DHT22;6892;50.916;4.356;2022-08-11T04:27:10;16.80;1.00
13638;DHT22;6892;50.916;4.356;2022-08-11T04:29:44;16.80;1.00
13638;DHT22;6892;50.916;4.356;2022-08-11T04:32:21;16.80;1.00
13638;DHT22;6892;50.916;4.356;2022-08-11T04:35:10;16.80;1.00
13638;DHT22;6892;50.916;4.356;2022-08-11T04:40:33;16.80;1.00
13638;DHT22;6892;50.916;4.356;2022-08-11T04:43:18;16.80;1.00
13638;DHT22;6892;50.916;4.356;2022-08-11T04:46:00;16.90;1.00
13638;DHT22;6892;50.916;4.356;2022-08-11T04:48:42;17.00;1.00
13638;DHT22;6892;50.916;4.356;2022-08-11T04:51:42;17.10;1.00
13638;DHT22;6892;50.916;4.356;2022-08-11T04:54:31;17.10;1.00
13638;DHT22;6892;50.916;4.356;2022-08-11T04:57:27;17.20;1.00
13638;DHT22;6892;50.916;4.356;2022-08-11T05:00:17;17.20;1.00
13638;DHT22;6892;50.916;4.356;2022-08-11T05:03:16;17.30;1.00
13638;DHT22;6892;50.916;4.356;2022-08-11T05:08:42;17.40;1.00
13638;DHT22;6892;50.916;4.356;2022-08-11T05:14:13;17.50;1.00
13638;DHT22;6892;50.916;4.356;2022-08-11T05:17:05;17.50;1.00
13638;DHT22;6892;50.916;4.356;2022-08-11T05:19:51;17.60;1.00
13638;DHT22;6892;50.916;4.356;2022-08-11T05:22:36;17.60;1.00
13638;DHT22;6892;50.916;4.356;2022-08-11T05:25:24;17.70;1.00
13638;DHT22;6892;50.916;4.356;2022-08-11T05:28:10;17.70;1.00
13638;DHT22;6892;50.916;4.356;2022-08-11T05:30:55;17.80;1.00
13638;DHT22;6892;50.916;4.356;2022-08-11T05:33:41;17.80;1.00
13638;DHT22;6892;50.916;4.356;2022-08-11T05:36:29;17.90;1.00
13638;DHT22;6892;50.916;4.356;2022-08-11T05:38:58;18.00;1.00
13638;DHT22;6892;50.916;4.356;2022-08-11T05:41:45;18.10;1.00
13638;DHT22;6892;50.916;4.356;2022-08-11T05:44:30;18.20;1.00
13638;DHT22;6892;50.916;4.356;2022-08-11T05:47:23;18.30;1.00
13638;DHT22;6892;50.916;4.356;2022-08-11T05:50:08;18.40;1.00
13638;DHT22;6892;50.916;4.356;2022-08-11T05:52:53;18.60;1.00
13638;DHT22;6892;50.916;4.356;2022-08-11T05:55:38;18.90;1.00
13638;DHT22;6892;50.916;4.356;2022-08-11T05:58:24;19.00;1.00
13638;DHT22;6892;50.916;4.356;2022-08-11T06:00:52;19.10;1.00
13638;DHT22;6892;50.916;4.356;2022-08-11T06:03:19;19.20;1.00
13638;DHT22;6892;50.916;4.356;2022-08-11T06:05:48;19.30;1.00
13638;DHT22;6892;50.916;4.356;2022-08-11T06:08:15;19.30;1.00
13638;DHT22;6892;50.916;4.356;2022-08-11T06:10:42;19.30;1.00
13638;DHT22;6892;50.916;4.356;2022-08-11T06:13:13;19.30;1.00
13638;DHT22;6892;50.916;4.356;2022-08-11T06:15:45;19.40;1.00
13638;DHT22;6892;50.916;4.356;2022-08-11T06:18:12;19.40;1.00
13638;DHT22;6892;50.916;4.356;2022-08-11T06:20:44;19.50;1.00
13638;DHT22;6892;50.916;4.356;2022-08-11T06:23:11;19.60;1.00
13638;DHT22;6892;50.916;4.356;2022-08-11T06:25:39;19.70;1.00
13638;DHT22;6892;50.916;4.356;2022-08-11T06:28:06;19.80;1.00
13638;DHT22;6892;50.916;4.356;2022-08-11T06:30:35;19.90;1.00
13638;DHT22;6892;50.916;4.356;2022-08-11T06:33:07;20.00;1.00
13638;DHT22;6892;50.916;4.356;2022-08-11T06:35:35;20.00;1.00
13638;DHT22;6892;50.916;4.356;2022-08-11T06:38:05;20.20;1.00
13638;DHT22;6892;50.916;4.356;2022-08-11T06:40:35;20.20;1.00
13638;DHT22;6892;50.916;4.356;2022-08-11T06:43:10;20.30;1.00
13638;DHT22;6892;50.916;4.356;2022-08-11T06:45:41;20.40;1.00
13638;DHT22;6892;50.916;4.356;2022-08-11T06:48:16;20.50;1.00
13638;DHT22;6892;50.916;4.356;2022-08-11T06:50:47;20.60;1.00
13638;DHT22;6892;50.916;4.356;2022-08-11T06:53:32;20.80;1.00
13638;DHT22;6892;50.916;4.356;2022-08-11T06:56:00;21.10;1.00
13638;DHT22;6892;50.916;4.356;2022-08-11T06:58:46;21.30;1.00
13638;DHT22;6892;50.916;4.356;2022-08-11T07:01:35;21.30;1.00
13638;DHT22;6892;50.916;4.356;2022-08-11T07:04:05;21.40;1.00
13638;DHT22;6892;50.916;4.356;2022-08-11T07:06:35;21.30;1.00
13638;DHT22;6892;50.916;4.356;2022-08-11T07:15:09;22.30;1.00
13638;DHT22;6892;50.916;4.356;2022-08-11T07:17:55;23.60;1.00
13638;DHT22;6892;50.916;4.356;2022-08-11T07:20:38;23.80;1.00
13638;DHT22;6892;50.916;4.356;2022-08-11T07:23:23;23.30;1.00
13638;DHT22;6892;50.916;4.356;2022-08-11T07:26:08;23.00;1.00
13638;DHT22;6892;50.916;4.356;2022-08-11T07:28:53;23.10;1.00
13638;DHT22;6892;50.916;4.356;2022-08-11T07:31:25;23.80;1.00
13638;DHT22;6892;50.916;4.356;2022-08-11T07:33:56;23.60;1.00
13638;DHT22;6892;50.916;4.356;2022-08-11T07:36:26;23.30;1.00
13638;DHT22;6892;50.916;4.356;2022-08-11T07:38:54;23.80;1.00
13638;DHT22;6892;50.916;4.356;2022-08-11T07:41:21;24.70;1.00
13638;DHT22;6892;50.916;4.356;2022-08-11T07:43:50;25.70;1.00
13638;DHT22;6892;50.916;4.356;2022-08-11T07:46:17;26.00;30.20
13638;DHT22;6892;50.916;4.356;2022-08-11T07:49:02;25.70;91.10
13638;DHT22;6892;50.916;4.356;2022-08-11T07:51:48;26.30;99.90
13638;DHT22;6892;50.916;4.356;2022-08-11T07:54:33;27.10;99.90
13638;DHT22;6892;50.916;4.356;2022-08-11T07:57:01;27.30;99.90
13638;DHT22;6892;50.916;4.356;2022-08-11T07:59:46;27.50;99.90
13638;DHT22;6892;50.916;4.356;2022-08-11T08:02:31;27.50;99.90
13638;DHT22;6892;50.916;4.356;2022-08-11T08:05:17;27.90;99.90
13638;DHT22;6892;50.916;4.356;2022-08-11T08:08:03;28.20;99.90
13638;DHT22;6892;50.916;4.356;2022-08-11T08:10:48;28.60;99.90
13638;DHT22;6892;50.916;4.356;2022-08-11T08:13:32;28.80;99.90
13638;DHT22;6892;50.916;4.356;2022-08-11T08:16:18;29.10;99.90
13638;DHT22;6892;50.916;4.356;2022-08-11T08:19:02;29.60;99.90
13638;DHT22;6892;50.916;4.356;2022-08-11T08:21:29;29.30;99.90
13638;DHT22;6892;50.916;4.356;2022-08-11T08:23:58;29.40;99.90
13638;DHT22;6892;50.916;4.356;2022-08-11T08:26:25;29.20;99.90
13638;DHT22;6892;50.916;4.356;2022-08-11T08:29:11;29.10;99.90
13638;DHT22;6892;50.916;4.356;2022-08-11T08:31:55;29.00;99.90
13638;DHT22;6892;50.916;4.356;2022-08-11T08:34:22;28.90;99.90
13638;DHT22;6892;50.916;4.356;2022-08-11T08:36:50;29.50;99.90
13638;DHT22;6892;50.916;4.356;2022-08-11T08:39:19;30.20;99.90
13638;DHT22;6892;50.916;4.356;2022-08-11T08:41:46;30.30;99.90
13638;DHT22;6892;50.916;4.356;2022-08-11T08:44:15;30.30;99.90
13638;DHT22;6892;50.916;4.356;2022-08-11T08:46:43;30.70;99.90
13638;DHT22;6892;50.916;4.356;2022-08-11T08:49:12;31.00;99.90
13638;DHT22;6892;50.916;4.356;2022-08-11T08:51:40;31.10;99.90
13638;DHT22;6892;50.916;4.356;2022-08-11T08:54:09;31.30;99.90
13638;DHT22;6892;50.916;4.356;2022-08-11T08:56:39;31.00;99.90
13638;DHT22;6892;50.916;4.356;2022-08-11T08:59:07;30.80;99.90
13638;DHT22;6892;50.916;4.356;2022-08-11T09:01:37;30.80;99.90
13638;DHT22;6892;50.916;4.356;2022-08-11T09:04:08;31.00;99.90
13638;DHT22;6892;50.916;4.356;2022-08-11T09:06:36;31.10;99.90
13638;DHT22;6892;50.916;4.356;2022-08-11T09:09:05;30.80;99.90
13638;DHT22;6892;50.916;4.356;2022-08-11T09:11:33;30.60;99.90
13638;DHT22;6892;50.916;4.356;2022-08-11T09:14:17;30.80;99.90
13638;DHT22;6892;50.916;4.356;2022-08-11T09:16:44;30.20;99.90
13638;DHT22;6892;50.916;4.356;2022-08-11T09:19:12;29.30;99.90
13638;DHT22;6892;50.916;4.356;2022-08-11T09:21:42;29.20;99.90
13638;DHT22;6892;50.916;4.356;2022-08-11T09:24:09;29.20;99.90
13638;DHT22;6892;50.916;4.356;2022-08-11T09:26:53;29.30;99.90
13638;DHT22;6892;50.916;4.356;2022-08-11T09:29:28;29.50;99.90
13638;DHT22;6892;50.916;4.356;2022-08-11T09:31:56;29.40;99.90
13638;DHT22;6892;50.916;4.356;2022-08-11T09:34:23;29.20;99.90
13638;DHT22;6892;50.916;4.356;2022-08-11T09:36:51;29.20;99.90
13638;DHT22;6892;50.916;4.356;2022-08-11T09:39:42;29.20;99.90
13638;DHT22;6892;50.916;4.356;2022-08-11T09:42:26;29.30;99.90
13638;DHT22;6892;50.916;4.356;2022-08-11T09:45:15;29.00;99.90
13638;DHT22;6892;50.916;4.356;2022-08-11T09:47:41;28.80;99.90
13638;DHT22;6892;50.916;4.356;2022-08-11T09:50:09;28.90;99.90
13638;DHT22;6892;50.916;4.356;2022-08-11T09:52:37;29.10;99.90
13638;DHT22;6892;50.916;4.356;2022-08-11T09:55:04;29.10;99.90
13638;DHT22;6892;50.916;4.356;2022-08-11T09:57:37;28.70;99.90
13638;DHT22;6892;50.916;4.356;2022-08-11T10:00:26;28.60;99.90
13638;DHT22;6892;50.916;4.356;2022-08-11T10:02:53;28.90;99.90
13638;DHT22;6892;50.916;4.356;2022-08-11T10:05:21;28.70;99.90
13638;DHT22;6892;50.916;4.356;2022-08-11T10:08:06;28.70;99.90
13638;DHT22;6892;50.916;4.356;2022-08-11T10:10:34;28.80;99.90
13638;DHT22;6892;50.916;4.356;2022-08-11T10:13:02;28.90;99.90
13638;DHT22;6892;50.916;4.356;2022-08-11T10:15:32;29.30;99.90
13638;DHT22;6892;50.916;4.356;2022-08-11T10:18:07;29.60;99.90
13638;DHT22;6892;50.916;4.356;2022-08-11T10:20:51;29.50;99.90
13638;DHT22;6892;50.916;4.356;2022-08-11T10:23:20;29.50;99.90
13638;DHT22;6892;50.916;4.356;2022-08-11T10:26:06;29.50;99.90
13638;DHT22;6892;50.916;4.356;2022-08-11T10:28:50;29.70;99.90
13638;DHT22;6892;50.916;4.356;2022-08-11T10:31:19;29.80;99.90
13638;DHT22;6892;50.916;4.356;2022-08-11T10:34:04;30.00;99.90
13638;DHT22;6892;50.916;4.356;2022-08-11T10:36:31;30.00;99.90
13638;DHT22;6892;50.916;4.356;2022-08-11T10:38:59;30.10;99.90
13638;DHT22;6892;50.916;4.356;2022-08-11T10:41:26;30.20;99.90
13638;DHT22;6892;50.916;4.356;2022-08-11T10:44:11;30.20;99.90
13638;DHT22;6892;50.916;4.356;2022-08-11T10:46:40;30.40;99.90
13638;DHT22;6892;50.916;4.356;2022-08-11T10:49:24;30.10;99.90
13638;DHT22;6892;50.916;4.356;2022-08-11T10:51:52;30.10;99.90
13638;DHT22;6892;50.916;4.356;2022-08-11T10:54:38;30.00;99.90
13638;DHT22;6892;50.916;4.356;2022-08-11T10:57:23;30.10;99.90
13638;DHT22;6892;50.916;4.356;2022-08-11T11:00:08;30.40;99.90
13638;DHT22;6892;50.916;4.356;2022-08-11T11:02:40;30.20;99.90
13638;DHT22;6892;50.916;4.356;2022-08-11T11:05:09;30.20;99.90
13638;DHT22;6892;50.916;4.356;2022-08-11T11:07:38;30.20;99.90
13638;DHT22;6892;50.916;4.356;2022-08-11T11:10:08;30.50;99.90
13638;DHT22;6892;50.916;4.356;2022-08-11T11:12:39;30.90;99.90
13638;DHT22;6892;50.916;4.356;2022-08-11T11:15:28;31.10;99.90
13638;DHT22;6892;50.916;4.356;2022-08-11T11:18:16;30.70;99.90
13638;DHT22;6892;50.916;4.356;2022-08-11T11:20:46;30.40;99.90
13638;DHT22;6892;50.916;4.356;2022-08-11T11:23:15;30.30;99.90
13638;DHT22;6892;50.916;4.356;2022-08-11T11:25:49;30.50;99.90
13638;DHT22;6892;50.916;4.356;2022-08-11T11:28:33;30.90;99.90
13638;DHT22;6892;50.916;4.356;2022-08-11T11:31:07;31.10;99.90
13638;DHT22;6892;50.916;4.356;2022-08-11T11:33:41;31.40;99.90
13638;DHT22;6892;50.916;4.356;2022-08-11T11:36:21;31.50;99.90
13638;DHT22;6892;50.916;4.356;2022-08-11T11:38:51;31.20;99.90
13638;DHT22;6892;50.916;4.356;2022-08-11T11:41:21;31.00;99.90
13638;DHT22;6892;50.916;4.356;2022-08-11T11:43:51;31.20;99.90
13638;DHT22;6892;50.916;4.356;2022-08-11T11:46:18;31.40;99.90
13638;DHT22;6892;50.916;4.356;2022-08-11T11:48:46;31.50;99.90
13638;DHT22;6892;50.916;4.356;2022-08-11T11:51:13;31.60;99.90
13638;DHT22;6892;50.916;4.356;2022-08-11T11:53:41;31.80;99.90
13638;DHT22;6892;50.916;4.356;2022-08-11T11:56:08;31.80;99.90
13638;DHT22;6892;50.916;4.356;2022-08-11T11:58:36;31.90;99.90
13638;DHT22;6892;50.916;4.356;2022-08-11T12:01:20;31.60;99.90
13638;DHT22;6892;50.916;4.356;2022-08-11T12:03:51;31.70;99.90
13638;DHT22;6892;50.916;4.356;2022-08-11T12:06:19;31.90;99.90
13638;DHT22;6892;50.916;4.356;2022-08-11T12:08:47;32.10;99.90
13638;DHT22;6892;50.916;4.356;2022-08-11T12:11:14;32.10;99.90
13638;DHT22;6892;50.916;4.356;2022-08-11T12:14:01;32.40;99.90
13638;DHT22;6892;50.916;4.356;2022-08-11T12:16:28;32.20;99.90
13638;DHT22;6892;50.916;4.356;2022-08-11T12:18:58;32.10;99.90
13638;DHT22;6892;50.916;4.356;2022-08-11T12:21:25;31.90;99.90
13638;DHT22;6892;50.916;4.356;2022-08-11T12:23:53;32.00;99.90
13638;DHT22;6892;50.916;4.356;2022-08-11T12:26:38;32.00;99.90
13638;DHT22;6892;50.916;4.356;2022-08-11T12:29:22;32.10;99.90
13638;DHT22;6892;50.916;4.356;2022-08-11T12:31:52;31.90;99.90
13638;DHT22;6892;50.916;4.356;2022-08-11T12:34:20;31.80;99.90
13638;DHT22;6892;50.916;4.356;2022-08-11T12:36:50;31.70;99.90
13638;DHT22;6892;50.916;4.356;2022-08-11T12:39:18;31.90;99.90
13638;DHT22;6892;50.916;4.356;2022-08-11T12:42:07;32.30;99.90
13638;DHT22;6892;50.916;4.356;2022-08-11T12:44:52;32.30;99.90
13638;DHT22;6892;50.916;4.356;2022-08-11T12:47:37;32.40;99.90
13638;DHT22;6892;50.916;4.356;2022-08-11T12:50:26;32.40;99.90
13638;DHT22;6892;50.916;4.356;2022-08-11T12:53:10;32.40;99.90
13638;DHT22;6892;50.916;4.356;2022-08-11T12:55:38;31.90;99.90
13638;DHT22;6892;50.916;4.356;2022-08-11T12:58:23;32.10;99.90
13638;DHT22;6892;50.916;4.356;2022-08-11T13:00:52;32.00;99.90
13638;DHT22;6892;50.916;4.356;2022-08-11T13:03:36;32.00;99.90
13638;DHT22;6892;50.916;4.356;2022-08-11T13:06:23;31.90;99.90
13638;DHT22;6892;50.916;4.356;2022-08-11T13:08:50;32.10;99.90
13638;DHT22;6892;50.916;4.356;2022-08-11T13:11:17;32.10;99.90
13638;DHT22;6892;50.916;4.356;2022-08-11T13:14:02;32.20;99.90
13638;DHT22;6892;50.916;4.356;2022-08-11T13:16:30;32.40;99.90
13638;DHT22;6892;50.916;4.356;2022-08-11T13:19:17;32.10;99.90
13638;DHT22;6892;50.916;4.356;2022-08-11T13:21:46;31.90;99.90
13638;DHT22;6892;50.916;4.356;2022-08-11T13:24:14;32.20;99.90
13638;DHT22;6892;50.916;4.356;2022-08-11T13:26:43;32.20;99.90
13638;DHT22;6892;50.916;4.356;2022-08-11T13:29:11;32.30;99.90
13638;DHT22;6892;50.916;4.356;2022-08-11T13:31:39;32.10;99.90
13638;DHT22;6892;50.916;4.356;2022-08-11T13:34:07;32.10;99.90
13638;DHT22;6892;50.916;4.356;2022-08-11T13:36:34;32.50;99.90
13638;DHT22;6892;50.916;4.356;2022-08-11T13:39:03;32.80;99.90
13638;DHT22;6892;50.916;4.356;2022-08-11T13:41:35;32.60;99.90
13638;DHT22;6892;50.916;4.356;2022-08-11T13:44:07;32.80;99.90
13638;DHT22;6892;50.916;4.356;2022-08-11T13:46:34;32.90;99.90
13638;DHT22;6892;50.916;4.356;2022-08-11T13:49:01;33.10;99.90
13638;DHT22;6892;50.916;4.356;2022-08-11T13:51:28;32.90;99.90
13638;DHT22;6892;50.916;4.356;2022-08-11T13:53:57;33.10;99.90
13638;DHT22;6892;50.916;4.356;2022-08-11T13:56:25;33.10;99.90
13638;DHT22;6892;50.916;4.356;2022-08-11T13:58:53;32.80;99.90
13638;DHT22;6892;50.916;4.356;2022-08-11T14:01:20;32.60;99.90
13638;DHT22;6892;50.916;4.356;2022-08-11T14:03:49;32.60;99.90
13638;DHT22;6892;50.916;4.356;2022-08-11T14:06:16;32.60;99.90
13638;DHT22;6892;50.916;4.356;2022-08-11T14:08:44;32.30;99.90
13638;DHT22;6892;50.916;4.356;2022-08-11T14:11:11;32.40;99.90
13638;DHT22;6892;50.916;4.356;2022-08-11T14:13:57;32.50;99.90
13638;DHT22;6892;50.916;4.356;2022-08-11T14:16:25;32.70;99.90
13638;DHT22;6892;50.916;4.356;2022-08-11T14:18:53;33.00;99.90
13638;DHT22;6892;50.916;4.356;2022-08-11T14:21:23;33.00;99.90
13638;DHT22;6892;50.916;4.356;2022-08-11T14:24:07;33.10;99.90
13638;DHT22;6892;50.916;4.356;2022-08-11T14:26:36;33.10;99.90
13638;DHT22;6892;50.916;4.356;2022-08-11T14:29:06;32.80;99.90
13638;DHT22;6892;50.916;4.356;2022-08-11T14:31:34;32.60;99.90
13638;DHT22;6892;50.916;4.356;2022-08-11T14:34:02;32.30;99.90
13638;DHT22;6892;50.916;4.356;2022-08-11T14:36:29;32.30;99.90
13638;DHT22;6892;50.916;4.356;2022-08-11T14:38:58;32.10;99.90
13638;DHT22;6892;50.916;4.356;2022-08-11T14:41:26;32.50;99.90
13638;DHT22;6892;50.916;4.356;2022-08-11T14:44:12;33.00;99.90
13638;DHT22;6892;50.916;4.356;2022-08-11T14:46:56;33.10;99.90
13638;DHT22;6892;50.916;4.356;2022-08-11T14:49:33;32.90;99.90
13638;DHT22;6892;50.916;4.356;2022-08-11T14:52:00;32.60;99.90
13638;DHT22;6892;50.916;4.356;2022-08-11T14:54:28;32.80;99.90
13638;DHT22;6892;50.916;4.356;2022-08-11T14:57:13;32.70;99.90
13638;DHT22;6892;50.916;4.356;2022-08-11T14:59:41;32.60;99.90
13638;DHT22;6892;50.916;4.356;2022-08-11T15:02:08;32.70;99.90
13638;DHT22;6892;50.916;4.356;2022-08-11T15:04:53;32.90;99.90
13638;DHT22;6892;50.916;4.356;2022-08-11T15:07:21;33.10;99.90
13638;DHT22;6892;50.916;4.356;2022-08-11T15:09:54;33.30;99.90
13638;DHT22;6892;50.916;4.356;2022-08-11T15:12:21;33.50;99.90
13638;DHT22;6892;50.916;4.356;2022-08-11T15:14:49;33.60;99.90
13638;DHT22;6892;50.916;4.356;2022-08-11T15:17:36;33.50;99.90
13638;DHT22;6892;50.916;4.356;2022-08-11T15:20:05;33.40;99.90
13638;DHT22;6892;50.916;4.356;2022-08-11T15:22:50;33.10;99.90
13638;DHT22;6892;50.916;4.356;2022-08-11T15:25:34;32.40;99.90
13638;DHT22;6892;50.916;4.356;2022-08-11T15:28:01;32.30;99.90
13638;DHT22;6892;50.916;4.356;2022-08-11T15:30:49;32.20;99.90
13638;DHT22;6892;50.916;4.356;2022-08-11T15:33:35;32.20;99.90
13638;DHT22;6892;50.916;4.356;2022-08-11T15:36:22;32.40;99.90
13638;DHT22;6892;50.916;4.356;2022-08-11T15:39:08;32.40;99.90
13638;DHT22;6892;50.916;4.356;2022-08-11T15:41:38;32.00;99.90
13638;DHT22;6892;50.916;4.356;2022-08-11T15:44:26;32.30;99.90
13638;DHT22;6892;50.916;4.356;2022-08-11T15:47:13;32.60;99.90
13638;DHT22;6892;50.916;4.356;2022-08-11T15:49:41;32.70;99.90
13638;DHT22;6892;50.916;4.356;2022-08-11T15:52:10;32.70;99.90
13638;DHT22;6892;50.916;4.356;2022-08-11T15:54:39;32.80;99.90
13638;DHT22;6892;50.916;4.356;2022-08-11T15:57:06;32.50;99.90
13638;DHT22;6892;50.916;4.356;2022-08-11T15:59:35;32.60;99.90
13638;DHT22;6892;50.916;4.356;2022-08-11T16:02:23;32.80;99.90
13638;DHT22;6892;50.916;4.356;2022-08-11T16:05:10;32.70;99.90
13638;DHT22;6892;50.916;4.356;2022-08-11T16:07:38;32.60;99.90
13638;DHT22;6892;50.916;4.356;2022-08-11T16:10:06;32.20;99.90
13638;DHT22;6892;50.916;4.356;2022-08-11T16:12:36;32.10;99.90
13638;DHT22;6892;50.916;4.356;2022-08-11T16:15:03;32.00;99.90
13638;DHT22;6892;50.916;4.356;2022-08-11T16:17:51;31.90;99.90
13638;DHT22;6892;50.916;4.356;2022-08-11T16:20:19;31.70;99.90
13638;DHT22;6892;50.916;4.356;2022-08-11T16:22:47;31.50;99.90
13638;DHT22;6892;50.916;4.356;2022-08-11T16:25:16;31.40;99.90
13638;DHT22;6892;50.916;4.356;2022-08-11T16:27:44;31.40;99.90
13638;DHT22;6892;50.916;4.356;2022-08-11T16:30:12;31.40;99.90
13638;DHT22;6892;50.916;4.356;2022-08-11T16:32:40;31.30;99.90
13638;DHT22;6892;50.916;4.356;2022-08-11T16:35:10;31.30;99.90
13638;DHT22;6892;50.916;4.356;2022-08-11T16:37:54;31.20;99.90
13638;DHT22;6892;50.916;4.356;2022-08-11T16:40:40;31.20;99.90
13638;DHT22;6892;50.916;4.356;2022-08-11T16:43:08;31.10;99.90
13638;DHT22;6892;50.916;4.356;2022-08-11T16:45:53;31.00;99.90
13638;DHT22;6892;50.916;4.356;2022-08-11T16:48:41;31.00;99.90
13638;DHT22;6892;50.916;4.356;2022-08-11T16:51:11;30.90;99.90
13638;DHT22;6892;50.916;4.356;2022-08-11T16:53:38;30.90;99.90
13638;DHT22;6892;50.916;4.356;2022-08-11T16:56:05;30.90;99.90
13638;DHT22;6892;50.916;4.356;2022-08-11T16:58:33;30.90;99.90
13638;DHT22;6892;50.916;4.356;2022-08-11T17:01:19;30.80;99.90
13638;DHT22;6892;50.916;4.356;2022-08-11T17:03:50;30.80;99.90
13638;DHT22;6892;50.916;4.356;2022-08-11T17:06:36;30.80;99.90
13638;DHT22;6892;50.916;4.356;2022-08-11T17:09:22;30.60;99.90
13638;DHT22;6892;50.916;4.356;2022-08-11T17:12:07;30.60;99.90
13638;DHT22;6892;50.916;4.356;2022-08-11T17:14:54;30.60;99.90
13638;DHT22;6892;50.916;4.356;2022-08-11T17:17:23;30.50;99.90
13638;DHT22;6892;50.916;4.356;2022-08-11T17:19:56;30.50;99.90
13638;DHT22;6892;50.916;4.356;2022-08-11T17:22:25;30.50;99.90
13638;DHT22;6892;50.916;4.356;2022-08-11T17:25:11;30.30;99.90
13638;DHT22;6892;50.916;4.356;2022-08-11T17:27:38;30.30;99.90
13638;DHT22;6892;50.916;4.356;2022-08-11T17:30:06;30.30;99.90